sensor_id;sensor_type;location;lat;lon;timestamp;pressure;altitude;pressure_sealevel;temperature;humidity
69535;BME280;56754;51.568;5.048;2023-02-28T00:00:31;103058.44;;;6.41;61.81
69535;BME280;56754;51.568;5.048;2023-02-28T00:02:57;103060.28;;;6.40;61.97
69535;BME280;56754;51.568;5.048;2023-02-28T00:05:23;103060.03;;;6.42;62.26
69535;BME280;56754;51.568;5.048;2023-02-28T00:07:50;103056.81;;;6.40;61.16
69535;BME280;56754;51.568;5.048;2023-02-28T00:10:21;103058.44;;;6.41;61.58
69535;BME280;56754;51.568;5.048;2023-02-28T00:12:48;103053.34;;;6.39;61.96
69535;BME280;56754;51.568;5.048;2023-02-28T00:15:13;103051.72;;;6.38;62.00
69535;BME280;56754;51.568;5.048;2023-02-28T00:17:38;103053.81;;;6.36;61.87
69535;BME280;56754;51.568;5.048;2023-02-28T00:20:05;103058.28;;;6.35;61.78
69535;BME280;56754;51.568;5.048;2023-02-28T00:22:31;103050.31;;;6.35;61.82
69535;BME280;56754;51.568;5.048;2023-02-28T00:24:56;103054.03;;;6.34;62.05
69535;BME280;56754;51.568;5.048;2023-02-28T00:27:21;103053.22;;;6.34;62.09
69535;BME280;56754;51.568;5.048;2023-02-28T00:29:47;103049.75;;;6.33;61.75
69535;BME280;56754;51.568;5.048;2023-02-28T00:32:12;103053.44;;;6.32;61.35
69535;BME280;56754;51.568;5.048;2023-02-28T00:34:38;103052.63;;;6.32;61.92
69535;BME280;56754;51.568;5.048;2023-02-28T00:37:04;103052.63;;;6.32;61.56
69535;BME280;56754;51.568;5.048;2023-02-28T00:39:30;103044.66;;;6.32;62.07
69535;BME280;56754;51.568;5.048;2023-02-28T00:41:55;103045.69;;;6.31;61.91
69535;BME280;56754;51.568;5.048;2023-02-28T00:44:21;103051.22;;;6.29;61.81
69535;BME280;56754;51.568;5.048;2023-02-28T00:46:46;103044.31;;;6.28;61.93
69535;BME280;56754;51.568;5.048;2023-02-28T00:49:12;103045.34;;;6.27;61.66
69535;BME280;56754;51.568;5.048;2023-02-28T00:51:37;103055.13;;;6.27;61.94
69535;BME280;56754;51.568;5.048;2023-02-28T00:54:02;103042.91;;;6.26;62.24
69535;BME280;56754;51.568;5.048;2023-02-28T00:56:28;103035.97;;;6.25;62.00
69535;BME280;56754;51.568;5.048;2023-02-28T00:58:53;103034.34;;;6.24;62.03
69535;BME280;56754;51.568;5.048;2023-02-28T01:01:18;103041.50;;;6.23;62.07
69535;BME280;56754;51.568;5.048;2023-02-28T01:03:44;103044.16;;;6.23;61.89
69535;BME280;56754;51.568;5.048;2023-02-28T01:06:09;103048.06;;;6.21;62.01
69535;BME280;56754;51.568;5.048;2023-02-28T01:08:34;103051.56;;;6.21;62.30
69535;BME280;56754;51.568;5.048;2023-02-28T01:11:07;103052.56;;;6.20;62.24
69535;BME280;56754;51.568;5.048;2023-02-28T01:13:33;103047.25;;;6.20;62.29
69535;BME280;56754;51.568;5.048;2023-02-28T01:15:59;103061.34;;;6.21;61.78
69535;BME280;56754;51.568;5.048;2023-02-28T01:18:24;103054.44;;;6.20;62.46
69535;BME280;56754;51.568;5.048;2023-02-28T01:20:49;103051.97;;;6.18;62.19
69535;BME280;56754;51.568;5.048;2023-02-28T01:23:15;103055.47;;;6.19;62.69
69535;BME280;56754;51.568;5.048;2023-02-28T01:25:40;103054.63;;;6.18;62.36
69535;BME280;56754;51.568;5.048;2023-02-28T01:28:06;103062.59;;;6.18;62.73
69535;BME280;56754;51.568;5.048;2023-02-28T01:30:32;103054.63;;;6.18;62.90
69535;BME280;56754;51.568;5.048;2023-02-28T01:32:58;103065.25;;;6.18;62.56
69535;BME280;56754;51.568;5.048;2023-02-28T01:35:23;103057.28;;;6.18;62.45
69535;BME280;56754;51.568;5.048;2023-02-28T01:37:48;103056.28;;;6.19;62.00
69535;BME280;56754;51.568;5.048;2023-02-28T01:40:14;103056.28;;;6.19;62.41
69535;BME280;56754;51.568;5.048;2023-02-28T01:42:39;103056.28;;;6.19;62.39
69535;BME280;56754;51.568;5.048;2023-02-28T01:45:17;103057.28;;;6.18;62.43
69535;BME280;56754;51.568;5.048;2023-02-28T01:47:44;103049.31;;;6.18;62.58
69535;BME280;56754;51.568;5.048;2023-02-28T01:50:14;103058.13;;;6.19;62.24
69535;BME280;56754;51.568;5.048;2023-02-28T01:52:41;103066.09;;;6.19;62.10
69535;BME280;56754;51.568;5.048;2023-02-28T01:55:10;103053.84;;;6.18;62.67
69535;BME280;56754;51.568;5.048;2023-02-28T01:57:39;103051.19;;;6.18;62.11
69535;BME280;56754;51.568;5.048;2023-02-28T02:00:12;103043.22;;;6.18;62.39
69535;BME280;56754;51.568;5.048;2023-02-28T02:02:39;103043.22;;;6.18;62.13
69535;BME280;56754;51.568;5.048;2023-02-28T02:05:08;103042.19;;;6.19;62.38
69535;BME280;56754;51.568;5.048;2023-02-28T02:07:40;103034.22;;;6.19;62.85
69535;BME280;56754;51.568;5.048;2023-02-28T02:10:20;103040.34;;;6.19;62.48
69535;BME280;56754;51.568;5.048;2023-02-28T02:18:19;103033.78;;;6.22;62.45
69535;BME280;56754;51.568;5.048;2023-02-28T02:31:44;103030.44;;;6.26;62.35
69535;BME280;56754;51.568;5.048;2023-02-28T02:42:21;103029.78;;;6.31;61.76
69535;BME280;56754;51.568;5.048;2023-02-28T02:45:05;103025.84;;;6.33;61.99
69535;BME280;56754;51.568;5.048;2023-02-28T02:47:33;103024.00;;;6.34;61.96
69535;BME280;56754;51.568;5.048;2023-02-28T02:50:04;103025.63;;;6.35;61.66
69535;BME280;56754;51.568;5.048;2023-02-28T02:52:36;103020.88;;;6.37;61.78
69535;BME280;56754;51.568;5.048;2023-02-28T02:55:03;103031.28;;;6.38;61.74
69535;BME280;56754;51.568;5.048;2023-02-28T02:57:36;103026.78;;;6.39;61.31
69535;BME280;56754;51.568;5.048;2023-02-28T03:00:05;103031.88;;;6.41;61.25
69535;BME280;56754;51.568;5.048;2023-02-28T03:02:32;103030.81;;;6.42;61.51
69535;BME280;56754;51.568;5.048;2023-02-28T03:05:01;103033.25;;;6.43;61.53
69535;BME280;56754;51.568;5.048;2023-02-28T03:07:27;103025.28;;;6.43;61.41
69535;BME280;56754;51.568;5.048;2023-02-28T03:09:54;103033.25;;;6.43;61.69
69535;BME280;56754;51.568;5.048;2023-02-28T03:12:20;103034.06;;;6.44;61.45
69535;BME280;56754;51.568;5.048;2023-02-28T03:15:11;103030.38;;;6.45;61.67
69535;BME280;56754;51.568;5.048;2023-02-28T03:23:16;103024.63;;;6.48;61.30
69535;BME280;56754;51.568;5.048;2023-02-28T03:26:31;103031.75;;;6.47;60.93
69535;BME280;56754;51.568;5.048;2023-02-28T03:28:42;103027.03;;;6.49;61.21
69535;BME280;56754;51.568;5.048;2023-02-28T03:33:40;103026.25;;;6.49;60.94
69535;BME280;56754;51.568;5.048;2023-02-28T03:36:16;103012.72;;;6.50;60.60
69535;BME280;56754;51.568;5.048;2023-02-28T03:38:49;103020.69;;;6.50;61.29
69535;BME280;56754;51.568;5.048;2023-02-28T03:41:26;103015.16;;;6.52;60.47
69535;BME280;56754;51.568;5.048;2023-02-28T03:43:58;103015.16;;;6.52;61.00
69535;BME280;56754;51.568;5.048;2023-02-28T03:46:27;103020.47;;;6.52;61.00
69535;BME280;56754;51.568;5.048;2023-02-28T03:49:05;103019.41;;;6.53;60.61
69535;BME280;56754;51.568;5.048;2023-02-28T03:51:34;103023.72;;;6.54;60.49
69535;BME280;56754;51.568;5.048;2023-02-28T03:54:07;103022.88;;;6.53;60.37
69535;BME280;56754;51.568;5.048;2023-02-28T03:56:40;103040.47;;;6.54;60.47
69535;BME280;56754;51.568;5.048;2023-02-28T03:59:16;103034.34;;;6.54;60.35
69535;BME280;56754;51.568;5.048;2023-02-28T04:01:48;103036.75;;;6.55;60.59
69535;BME280;56754;51.568;5.048;2023-02-28T04:04:15;103041.03;;;6.56;60.79
69535;BME280;56754;51.568;5.048;2023-02-28T04:06:41;103033.88;;;6.57;60.57
69535;BME280;56754;51.568;5.048;2023-02-28T04:09:09;103038.38;;;6.56;60.50
69535;BME280;56754;51.568;5.048;2023-02-28T04:11:40;103031.22;;;6.57;60.63
69535;BME280;56754;51.568;5.048;2023-02-28T04:14:08;103035.72;;;6.56;60.67
69535;BME280;56754;51.568;5.048;2023-02-28T04:16:35;103027.53;;;6.58;60.53
69535;BME280;56754;51.568;5.048;2023-02-28T04:19:04;103039.19;;;6.57;60.45
69535;BME280;56754;51.568;5.048;2023-02-28T04:21:36;103033.06;;;6.56;59.99
69535;BME280;56754;51.568;5.048;2023-02-28T04:24:02;103024.06;;;6.57;60.30
69535;BME280;56754;51.568;5.048;2023-02-28T04:26:31;103021.97;;;6.59;60.10
69535;BME280;56754;51.568;5.048;2023-02-28T04:28:57;103027.28;;;6.59;60.58
69535;BME280;56754;51.568;5.048;2023-02-28T04:31:23;103029.94;;;6.59;59.93
69535;BME280;56754;51.568;5.048;2023-02-28T04:33:48;103031.56;;;6.60;60.43
69535;BME280;56754;51.568;5.048;2023-02-28T04:36:13;103044.88;;;6.60;60.34
69535;BME280;56754;51.568;5.048;2023-02-28T04:38:39;103034.22;;;6.60;60.46
69535;BME280;56754;51.568;5.048;2023-02-28T04:41:04;103037.69;;;6.61;60.07
69535;BME280;56754;51.568;5.048;2023-02-28T04:43:31;103035.84;;;6.61;59.85
69535;BME280;56754;51.568;5.048;2023-02-28T04:45:57;103044.88;;;6.60;60.50
69535;BME280;56754;51.568;5.048;2023-02-28T04:48:24;103051.78;;;6.61;60.32
69535;BME280;56754;51.568;5.048;2023-02-28T04:50:49;103054.44;;;6.61;59.85
69535;BME280;56754;51.568;5.048;2023-02-28T04:53:14;103041.75;;;6.64;60.07
69535;BME280;56754;51.568;5.048;2023-02-28T04:55:39;103053.44;;;6.63;60.41
69535;BME280;56754;51.568;5.048;2023-02-28T04:58:05;103060.34;;;6.64;60.00
69535;BME280;56754;51.568;5.048;2023-02-28T05:00:30;103065.66;;;6.64;59.96
69535;BME280;56754;51.568;5.048;2023-02-28T05:02:55;103059.53;;;6.63;60.01
69535;BME280;56754;51.568;5.048;2023-02-28T05:05:21;103052.38;;;6.64;59.97
69535;BME280;56754;51.568;5.048;2023-02-28T05:07:46;103058.75;;;6.63;59.77
69535;BME280;56754;51.568;5.048;2023-02-28T05:10:11;103059.53;;;6.63;59.74
69535;BME280;56754;51.568;5.048;2023-02-28T05:12:37;103058.75;;;6.63;59.86
69535;BME280;56754;51.568;5.048;2023-02-28T05:15:03;103057.91;;;6.62;59.66
69535;BME280;56754;51.568;5.048;2023-02-28T05:17:28;103066.72;;;6.63;59.87
69535;BME280;56754;51.568;5.048;2023-02-28T05:19:53;103064.28;;;6.61;59.72
69535;BME280;56754;51.568;5.048;2023-02-28T05:22:19;103057.91;;;6.62;59.75
69535;BME280;56754;51.568;5.048;2023-02-28T05:24:44;103074.69;;;6.63;59.64
69535;BME280;56754;51.568;5.048;2023-02-28T05:27:10;103072.03;;;6.63;59.72
69535;BME280;56754;51.568;5.048;2023-02-28T05:29:35;103065.06;;;6.61;59.50
69535;BME280;56754;51.568;5.048;2023-02-28T05:32:01;103074.69;;;6.63;59.44
69535;BME280;56754;51.568;5.048;2023-02-28T05:34:26;103076.50;;;6.62;59.56
69535;BME280;56754;51.568;5.048;2023-02-28T05:36:51;103063.22;;;6.62;59.49
69535;BME280;56754;51.568;5.048;2023-02-28T05:39:16;103074.69;;;6.63;59.57
69535;BME280;56754;51.568;5.048;2023-02-28T05:41:42;103074.44;;;6.64;59.65
69535;BME280;56754;51.568;5.048;2023-02-28T05:44:08;103082.41;;;6.64;59.80
69535;BME280;56754;51.568;5.048;2023-02-28T05:46:34;103071.78;;;6.64;59.91
69535;BME280;56754;51.568;5.048;2023-02-28T05:48:59;103078.94;;;6.64;59.52
69535;BME280;56754;51.568;5.048;2023-02-28T05:51:25;103074.69;;;6.63;59.85
69535;BME280;56754;51.568;5.048;2023-02-28T05:53:50;103072.84;;;6.63;59.73
69535;BME280;56754;51.568;5.048;2023-02-28T05:56:15;103069.38;;;6.63;59.45
69535;BME280;56754;51.568;5.048;2023-02-28T05:58:41;103060.34;;;6.64;59.67
69535;BME280;56754;51.568;5.048;2023-02-28T06:01:24;103064.88;;;6.63;59.91
69535;BME280;56754;51.568;5.048;2023-02-28T06:03:51;103062.22;;;6.63;59.50
69535;BME280;56754;51.568;5.048;2023-02-28T06:06:17;103065.66;;;6.64;59.19
69535;BME280;56754;51.568;5.048;2023-02-28T06:08:42;103054.22;;;6.63;59.35
69535;BME280;56754;51.568;5.048;2023-02-28T06:11:07;103046.47;;;6.61;58.87
69535;BME280;56754;51.568;5.048;2023-02-28T06:13:32;103058.75;;;6.63;59.54
69535;BME280;56754;51.568;5.048;2023-02-28T06:16:00;103061.41;;;6.63;59.97
69535;BME280;56754;51.568;5.048;2023-02-28T06:18:26;103061.41;;;6.63;59.42
69535;BME280;56754;51.568;5.048;2023-02-28T06:20:54;103067.72;;;6.61;59.27
69535;BME280;56754;51.568;5.048;2023-02-28T06:23:20;103064.88;;;6.63;59.31
69535;BME280;56754;51.568;5.048;2023-02-28T06:25:46;103046.47;;;6.61;59.36
69535;BME280;56754;51.568;5.048;2023-02-28T06:28:11;103043.59;;;6.63;59.30
69535;BME280;56754;51.568;5.048;2023-02-28T06:30:38;103062.22;;;6.63;59.17
69535;BME280;56754;51.568;5.048;2023-02-28T06:33:03;103065.66;;;6.64;59.10
69535;BME280;56754;51.568;5.048;2023-02-28T06:35:28;103075.50;;;6.63;59.36
69535;BME280;56754;51.568;5.048;2023-02-28T06:37:53;103062.22;;;6.63;59.21
69535;BME280;56754;51.568;5.048;2023-02-28T06:40:19;103070.19;;;6.63;59.38
69535;BME280;56754;51.568;5.048;2023-02-28T06:42:44;103070.19;;;6.63;59.40
69535;BME280;56754;51.568;5.048;2023-02-28T06:45:10;103064.06;;;6.63;59.25
69535;BME280;56754;51.568;5.048;2023-02-28T06:47:38;103072.84;;;6.63;58.98
69535;BME280;56754;51.568;5.048;2023-02-28T06:50:04;103065.66;;;6.64;59.27
69535;BME280;56754;51.568;5.048;2023-02-28T06:52:29;103058.50;;;6.64;59.06
69535;BME280;56754;51.568;5.048;2023-02-28T06:54:54;103067.28;;;6.65;59.21
69535;BME280;56754;51.568;5.048;2023-02-28T06:57:20;103071.34;;;6.67;59.22
69535;BME280;56754;51.568;5.048;2023-02-28T06:59:45;103088.06;;;6.68;59.49
69535;BME280;56754;51.568;5.048;2023-02-28T07:02:10;103083.56;;;6.68;59.21
69535;BME280;56754;51.568;5.048;2023-02-28T07:04:36;103072.13;;;6.68;58.92
69535;BME280;56754;51.568;5.048;2023-02-28T07:07:01;103087.88;;;6.69;59.23
69535;BME280;56754;51.568;5.048;2023-02-28T07:09:26;103085.22;;;6.69;58.95
69535;BME280;56754;51.568;5.048;2023-02-28T07:11:51;103097.44;;;6.70;59.19
69535;BME280;56754;51.568;5.048;2023-02-28T07:14:17;103091.09;;;6.71;59.07
69535;BME280;56754;51.568;5.048;2023-02-28T07:16:42;103073.88;;;6.74;58.99
69535;BME280;56754;51.568;5.048;2023-02-28T07:19:07;103100.47;;;6.74;58.64
69535;BME280;56754;51.568;5.048;2023-02-28T07:21:33;103106.56;;;6.74;58.88
69535;BME280;56754;51.568;5.048;2023-02-28T07:23:58;103101.84;;;6.76;58.89
69535;BME280;56754;51.568;5.048;2023-02-28T07:26:23;103095.72;;;6.76;58.87
69535;BME280;56754;51.568;5.048;2023-02-28T07:28:49;103101.66;;;6.78;58.69
69535;BME280;56754;51.568;5.048;2023-02-28T07:31:15;103096.31;;;6.78;58.99
69535;BME280;56754;51.568;5.048;2023-02-28T07:33:40;103100.59;;;6.79;59.25
69535;BME280;56754;51.568;5.048;2023-02-28T07:36:08;103112.84;;;6.80;59.11
69535;BME280;56754;51.568;5.048;2023-02-28T07:38:35;103096.69;;;6.81;58.80
69535;BME280;56754;51.568;5.048;2023-02-28T07:41:01;103107.06;;;6.83;58.68
69535;BME280;56754;51.568;5.048;2023-02-28T07:43:27;103103.38;;;6.84;58.84
69535;BME280;56754;51.568;5.048;2023-02-28T07:45:52;103101.53;;;6.84;58.81
69535;BME280;56754;51.568;5.048;2023-02-28T07:48:17;103104.78;;;6.87;58.67
69535;BME280;56754;51.568;5.048;2023-02-28T07:50:43;103105.59;;;6.87;58.68
69535;BME280;56754;51.568;5.048;2023-02-28T07:53:09;103099.22;;;6.88;58.79
69535;BME280;56754;51.568;5.048;2023-02-28T07:55:34;103103.53;;;6.89;58.74
69535;BME280;56754;51.568;5.048;2023-02-28T07:57:59;103109.66;;;6.90;58.81
69535;BME280;56754;51.568;5.048;2023-02-28T08:00:25;103105.72;;;6.92;59.19
69535;BME280;56754;51.568;5.048;2023-02-28T08:02:50;103112.19;;;6.96;58.70
69535;BME280;56754;51.568;5.048;2023-02-28T08:05:15;103110.94;;;6.99;58.68
69535;BME280;56754;51.568;5.048;2023-02-28T08:08:03;103119.47;;;7.01;59.14
69535;BME280;56754;51.568;5.048;2023-02-28T08:10:28;103115.56;;;7.03;58.48
69535;BME280;56754;51.568;5.048;2023-02-28T08:12:54;103108.16;;;7.05;58.18
69535;BME280;56754;51.568;5.048;2023-02-28T08:15:19;103109.31;;;7.10;58.26
69535;BME280;56754;51.568;5.048;2023-02-28T08:17:44;103111.75;;;7.11;58.14
69535;BME280;56754;51.568;5.048;2023-02-28T08:20:10;103113.97;;;7.14;58.07
69535;BME280;56754;51.568;5.048;2023-02-28T08:22:35;103105.72;;;7.16;58.32
69535;BME280;56754;51.568;5.048;2023-02-28T08:25:01;103112.22;;;7.20;58.44
69535;BME280;56754;51.568;5.048;2023-02-28T08:27:26;103118.13;;;7.22;58.08
69535;BME280;56754;51.568;5.048;2023-02-28T08:29:51;103125.66;;;7.25;57.82
69535;BME280;56754;51.568;5.048;2023-02-28T08:32:17;103112.69;;;7.28;57.68
69535;BME280;56754;51.568;5.048;2023-02-28T08:34:42;103111.44;;;7.31;57.64
69535;BME280;56754;51.568;5.048;2023-02-28T08:37:07;103104.59;;;7.35;57.53
69535;BME280;56754;51.568;5.048;2023-02-28T08:39:36;103112.91;;;7.39;57.52
69535;BME280;56754;51.568;5.048;2023-02-28T08:42:03;103117.56;;;7.43;57.51
69535;BME280;56754;51.568;5.048;2023-02-28T08:44:28;103100.34;;;7.46;57.80
69535;BME280;56754;51.568;5.048;2023-02-28T08:46:54;103104.94;;;7.50;57.80
69535;BME280;56754;51.568;5.048;2023-02-28T08:49:19;103101.81;;;7.53;57.65
69535;BME280;56754;51.568;5.048;2023-02-28T08:51:44;103096.28;;;7.55;57.27
69535;BME280;56754;51.568;5.048;2023-02-28T08:54:10;103108.31;;;7.58;57.48
69535;BME280;56754;51.568;5.048;2023-02-28T08:56:35;103109.69;;;7.60;57.41
69535;BME280;56754;51.568;5.048;2023-02-28T08:59:00;103106.78;;;7.62;57.18
69535;BME280;56754;51.568;5.048;2023-02-28T09:01:27;103111.06;;;7.63;57.20
69535;BME280;56754;51.568;5.048;2023-02-28T09:03:54;103108.19;;;7.64;56.76
69535;BME280;56754;51.568;5.048;2023-02-28T09:06:21;103112.69;;;7.64;56.28
69535;BME280;56754;51.568;5.048;2023-02-28T09:08:47;103115.91;;;7.66;56.46
69535;BME280;56754;51.568;5.048;2023-02-28T09:11:12;103115.69;;;7.67;56.45
69535;BME280;56754;51.568;5.048;2023-02-28T09:13:38;103117.88;;;7.70;56.03
69535;BME280;56754;51.568;5.048;2023-02-28T09:16:06;103109.69;;;7.72;55.88
69535;BME280;56754;51.568;5.048;2023-02-28T09:18:33;103119.03;;;7.74;55.97
69535;BME280;56754;51.568;5.048;2023-02-28T09:20:58;103129.22;;;7.78;56.53
69535;BME280;56754;51.568;5.048;2023-02-28T09:23:24;103110.34;;;7.79;57.17
69535;BME280;56754;51.568;5.048;2023-02-28T09:25:52;103108.28;;;7.81;57.23
69535;BME280;56754;51.568;5.048;2023-02-28T09:28:18;103110.69;;;7.83;57.15
69535;BME280;56754;51.568;5.048;2023-02-28T09:30:45;103113.94;;;7.85;57.23
69535;BME280;56754;51.568;5.048;2023-02-28T09:33:11;103114.53;;;7.87;57.90
69535;BME280;56754;51.568;5.048;2023-02-28T09:35:36;103113.22;;;7.89;57.37
69535;BME280;56754;51.568;5.048;2023-02-28T09:38:01;103110.56;;;7.89;57.33
69535;BME280;56754;51.568;5.048;2023-02-28T09:40:27;103108.47;;;7.91;57.01
69535;BME280;56754;51.568;5.048;2023-02-28T09:42:55;103111.94;;;7.92;57.27
69535;BME280;56754;51.568;5.048;2023-02-28T09:45:29;103113.34;;;7.94;56.96
69535;BME280;56754;51.568;5.048;2023-02-28T09:47:59;103106.41;;;7.93;56.76
69535;BME280;56754;51.568;5.048;2023-02-28T09:52:53;103112.53;;;7.94;56.21
69535;BME280;56754;51.568;5.048;2023-02-28T09:55:25;103111.47;;;7.95;56.45
69535;BME280;56754;51.568;5.048;2023-02-28T09:57:53;103108.81;;;7.95;56.20
69535;BME280;56754;51.568;5.048;2023-02-28T10:00:32;103109.63;;;7.95;55.86
69535;BME280;56754;51.568;5.048;2023-02-28T10:03:22;103117.59;;;7.95;56.42
69535;BME280;56754;51.568;5.048;2023-02-28T10:05:51;103117.59;;;7.95;55.95
69535;BME280;56754;51.568;5.048;2023-02-28T10:08:20;103122.94;;;7.95;56.83
69535;BME280;56754;51.568;5.048;2023-02-28T10:10:51;103116.59;;;7.96;56.84
69535;BME280;56754;51.568;5.048;2023-02-28T10:15:52;103107.53;;;7.97;57.31
69535;BME280;56754;51.568;5.048;2023-02-28T10:18:25;103107.53;;;7.97;57.02
69535;BME280;56754;51.568;5.048;2023-02-28T10:20:53;103099.53;;;7.97;56.59
69535;BME280;56754;51.568;5.048;2023-02-28T10:23:23;103098.50;;;7.98;56.33
69535;BME280;56754;51.568;5.048;2023-02-28T10:26:05;103097.69;;;7.98;56.58
69535;BME280;56754;51.568;5.048;2023-02-28T10:28:34;103096.88;;;7.97;56.61
69535;BME280;56754;51.568;5.048;2023-02-28T10:30:59;103097.69;;;7.98;56.17
69535;BME280;56754;51.568;5.048;2023-02-28T10:33:30;103093.16;;;7.98;56.45
69535;BME280;56754;51.568;5.048;2023-02-28T10:35:56;103086.00;;;7.99;56.04
69535;BME280;56754;51.568;5.048;2023-02-28T10:38:25;103089.47;;;8.00;55.80
69535;BME280;56754;51.568;5.048;2023-02-28T10:40:51;103084.16;;;8.00;55.29
69535;BME280;56754;51.568;5.048;2023-02-28T10:43:18;103084.16;;;8.00;55.38
69535;BME280;56754;51.568;5.048;2023-02-28T10:48:30;103088.69;;;7.99;55.31
69535;BME280;56754;51.568;5.048;2023-02-28T10:50:57;103092.16;;;8.00;55.18
69535;BME280;56754;51.568;5.048;2023-02-28T10:58:28;103075.09;;;8.01;55.99
69535;BME280;56754;51.568;5.048;2023-02-28T11:00:53;103075.09;;;8.01;56.34
69535;BME280;56754;51.568;5.048;2023-02-28T11:05:49;103075.09;;;8.01;56.70
69535;BME280;56754;51.568;5.048;2023-02-28T11:08:16;103068.75;;;8.02;57.19
69535;BME280;56754;51.568;5.048;2023-02-28T11:10:55;103068.75;;;8.02;56.13
69535;BME280;56754;51.568;5.048;2023-02-28T11:13:26;103066.09;;;8.02;57.04
69535;BME280;56754;51.568;5.048;2023-02-28T11:15:55;103060.75;;;8.02;57.39
69535;BME280;56754;51.568;5.048;2023-02-28T11:20:51;103064.22;;;8.02;57.31
69535;BME280;56754;51.568;5.048;2023-02-28T11:23:18;103067.69;;;8.03;57.44
69535;BME280;56754;51.568;5.048;2023-02-28T11:25:50;103060.50;;;8.03;57.63
69535;BME280;56754;51.568;5.048;2023-02-28T11:28:33;103063.97;;;8.04;57.81
69535;BME280;56754;51.568;5.048;2023-02-28T11:31:25;103060.50;;;8.03;57.87
69535;BME280;56754;51.568;5.048;2023-02-28T11:33:51;103058.66;;;8.04;57.57
69535;BME280;56754;51.568;5.048;2023-02-28T11:36:30;103059.47;;;8.04;57.35
69535;BME280;56754;51.568;5.048;2023-02-28T11:39:07;103056.00;;;8.04;57.81
69535;BME280;56754;51.568;5.048;2023-02-28T11:44:48;103043.47;;;8.04;57.06
69535;BME280;56754;51.568;5.048;2023-02-28T11:53:01;103032.81;;;8.04;56.34
69535;BME280;56754;51.568;5.048;2023-02-28T11:55:36;103036.31;;;8.05;56.72
69535;BME280;56754;51.568;5.048;2023-02-28T12:06:32;103035.25;;;8.06;56.44
69535;BME280;56754;51.568;5.048;2023-02-28T12:11:54;103031.53;;;8.07;56.21
69535;BME280;56754;51.568;5.048;2023-02-28T12:28:11;103027.94;;;8.13;56.71
69535;BME280;56754;51.568;5.048;2023-02-28T12:30:43;103019.47;;;8.16;56.79
69535;BME280;56754;51.568;5.048;2023-02-28T12:33:14;103022.69;;;8.18;57.16
69535;BME280;56754;51.568;5.048;2023-02-28T12:35:52;103022.00;;;8.23;57.19
69535;BME280;56754;51.568;5.048;2023-02-28T12:38:26;103012.69;;;8.25;56.94
69535;BME280;56754;51.568;5.048;2023-02-28T12:43:21;103002.72;;;8.32;57.72
69535;BME280;56754;51.568;5.048;2023-02-28T12:51:11;102993.72;;;8.50;57.02
69535;BME280;56754;51.568;5.048;2023-02-28T13:10:15;102982.38;;;8.94;56.38
69535;BME280;56754;51.568;5.048;2023-02-28T13:12:49;102976.06;;;9.00;56.47
69535;BME280;56754;51.568;5.048;2023-02-28T13:15:24;102969.97;;;9.04;56.01
69535;BME280;56754;51.568;5.048;2023-02-28T13:17:53;102964.16;;;9.07;55.92
69535;BME280;56754;51.568;5.048;2023-02-28T13:20:34;102966.09;;;9.12;56.21
69535;BME280;56754;51.568;5.048;2023-02-28T13:23:00;102960.84;;;9.17;55.07
69535;BME280;56754;51.568;5.048;2023-02-28T13:28:13;102971.88;;;9.26;54.86
69535;BME280;56754;51.568;5.048;2023-02-28T13:36:07;102959.22;;;9.38;54.81
69535;BME280;56754;51.568;5.048;2023-02-28T13:38:55;102959.53;;;9.42;54.96
69535;BME280;56754;51.568;5.048;2023-02-28T13:46:26;102956.72;;;9.53;55.05
69535;BME280;56754;51.568;5.048;2023-02-28T13:48:51;102954.13;;;9.59;54.71
69535;BME280;56754;51.568;5.048;2023-02-28T13:51:40;102951.75;;;9.62;55.51
69535;BME280;56754;51.568;5.048;2023-02-28T14:00:07;102955.66;;;9.76;55.33
69535;BME280;56754;51.568;5.048;2023-02-28T14:05:27;102949.84;;;9.85;54.42
69535;BME280;56754;51.568;5.048;2023-02-28T14:07:58;102940.81;;;9.91;54.61
69535;BME280;56754;51.568;5.048;2023-02-28T14:10:28;102944.84;;;9.93;55.00
69535;BME280;56754;51.568;5.048;2023-02-28T14:18:30;102936.16;;;10.08;54.03
69535;BME280;56754;51.568;5.048;2023-02-28T14:32:13;102944.97;;;10.31;53.62
69535;BME280;56754;51.568;5.048;2023-02-28T14:37:20;102939.16;;;10.39;53.39
69535;BME280;56754;51.568;5.048;2023-02-28T14:39:48;102935.41;;;10.40;52.84
69535;BME280;56754;51.568;5.048;2023-02-28T14:42:38;102931.41;;;10.42;52.80
69535;BME280;56754;51.568;5.048;2023-02-28T14:45:04;102927.16;;;10.46;52.72
69535;BME280;56754;51.568;5.048;2023-02-28T14:47:34;102932.00;;;10.50;52.13
69535;BME280;56754;51.568;5.048;2023-02-28T14:50:02;102931.22;;;10.54;52.94
69535;BME280;56754;51.568;5.048;2023-02-28T14:52:29;102930.72;;;10.57;52.03
69535;BME280;56754;51.568;5.048;2023-02-28T14:55:00;102925.09;;;10.59;51.96
69535;BME280;56754;51.568;5.048;2023-02-28T14:57:34;102923.53;;;10.63;51.87
69535;BME280;56754;51.568;5.048;2023-02-28T15:02:45;102927.34;;;10.72;51.39
69535;BME280;56754;51.568;5.048;2023-02-28T15:07:39;102920.16;;;10.78;51.24
69535;BME280;56754;51.568;5.048;2023-02-28T15:12:36;102928.44;;;10.81;50.84
69535;BME280;56754;51.568;5.048;2023-02-28T15:15:03;102916.69;;;10.82;50.88
69535;BME280;56754;51.568;5.048;2023-02-28T15:17:28;102911.63;;;10.86;51.28
69535;BME280;56754;51.568;5.048;2023-02-28T15:19:54;102918.06;;;10.90;50.79
69535;BME280;56754;51.568;5.048;2023-02-28T15:22:35;102921.31;;;10.92;50.89
69535;BME280;56754;51.568;5.048;2023-02-28T15:25:03;102922.66;;;10.95;50.80
69535;BME280;56754;51.568;5.048;2023-02-28T15:27:32;102922.38;;;10.96;50.23
69535;BME280;56754;51.568;5.048;2023-02-28T15:30:13;102918.63;;;10.97;50.12
69535;BME280;56754;51.568;5.048;2023-02-28T15:32:40;102931.75;;;10.99;50.22
69535;BME280;56754;51.568;5.048;2023-02-28T15:38:17;102927.47;;;11.03;50.15
69535;BME280;56754;51.568;5.048;2023-02-28T15:40:45;102928.84;;;11.05;50.10
69535;BME280;56754;51.568;5.048;2023-02-28T15:43:18;102925.13;;;11.06;49.69
69535;BME280;56754;51.568;5.048;2023-02-28T15:45:49;102932.06;;;11.07;49.86